createdAt,value
2018-08-03T00:00:10.478Z,2.20
2018-08-03T00:02:39.622Z,3.40
2018-08-03T00:05:08.559Z,3.40
2018-08-03T00:07:37.479Z,2.77
2018-08-03T00:10:07.042Z,3.20
2018-08-03T00:12:36.050Z,2.30
2018-08-03T00:15:05.910Z,3.20
2018-08-03T00:17:34.811Z,3.60
2018-08-03T00:20:04.370Z,3.07
2018-08-03T00:22:33.267Z,2.40
2018-08-03T00:25:02.864Z,2.73
2018-08-03T00:27:32.079Z,3.30
2018-08-03T00:30:00.986Z,3.40
2018-08-03T00:32:29.882Z,3.47
2018-08-03T00:34:58.846Z,3.53
2018-08-03T00:37:27.719Z,4.07
2018-08-03T00:39:56.389Z,2.90
2018-08-03T00:42:25.126Z,4.07
2018-08-03T00:44:54.092Z,2.90
2018-08-03T00:47:22.801Z,2.97
2018-08-03T00:49:51.592Z,4.10
2018-08-03T00:52:20.538Z,3.33
2018-08-03T00:54:49.398Z,3.57
2018-08-03T00:57:18.322Z,3.30
2018-08-03T00:59:47.246Z,4.00
2018-08-03T01:02:16.225Z,4.43
2018-08-03T01:04:45.146Z,3.40
2018-08-03T01:07:13.994Z,2.60
2018-08-03T01:09:42.942Z,4.10
2018-08-03T01:12:11.896Z,3.67
2018-08-03T01:14:40.775Z,4.43
2018-08-03T01:17:10.066Z,3.80
2018-08-03T01:19:38.700Z,3.70
2018-08-03T01:22:07.506Z,3.83
2018-08-03T01:24:36.429Z,2.50
2018-08-03T01:27:05.129Z,3.03
2018-08-03T01:29:34.047Z,3.37
2018-08-03T01:32:03.015Z,4.10
2018-08-03T01:34:31.905Z,4.47
2018-08-03T01:37:00.762Z,3.03
2018-08-03T01:39:29.402Z,3.87
2018-08-03T01:41:58.180Z,4.17
2018-08-03T01:44:27.062Z,2.40
2018-08-03T01:46:55.951Z,4.07
2018-08-03T01:49:24.894Z,2.90
2018-08-03T01:51:53.811Z,3.30
2018-08-03T01:54:23.198Z,3.83
2018-08-03T01:56:51.921Z,3.37
2018-08-03T01:59:20.866Z,4.53
2018-08-03T02:01:49.753Z,3.87
2018-08-03T02:04:18.644Z,2.90
2018-08-03T02:06:47.847Z,2.30
2018-08-03T02:09:16.779Z,3.00
2018-08-03T02:11:45.672Z,2.80
2018-08-03T02:14:14.626Z,3.73
2018-08-03T02:16:43.591Z,4.20
2018-08-03T02:19:13.026Z,4.20
2018-08-03T02:21:41.742Z,2.70
2018-08-03T02:24:10.524Z,3.13
2018-08-03T02:26:39.422Z,4.27
2018-08-03T02:29:08.367Z,4.13
2018-08-03T02:31:37.338Z,3.13
2018-08-03T02:34:06.870Z,3.07
2018-08-03T02:36:36.987Z,4.73
2018-08-03T02:39:07.975Z,4.00
2018-08-03T02:41:37.160Z,5.17
2018-08-03T02:44:06.363Z,4.73
2018-08-03T02:46:35.371Z,4.90
2018-08-03T02:49:04.270Z,4.70
2018-08-03T02:51:33.176Z,4.67
2018-08-03T02:54:02.167Z,5.13
2018-08-03T02:56:31.046Z,4.80
2018-08-03T02:58:59.898Z,4.77
2018-08-03T03:01:29.102Z,4.87
2018-08-03T03:03:58.054Z,4.13
2018-08-03T03:06:26.957Z,4.80
2018-08-03T03:08:55.829Z,3.70
2018-08-03T03:11:24.649Z,5.67
2018-08-03T03:13:53.513Z,4.57
2018-08-03T03:16:22.386Z,5.90
2018-08-03T03:18:51.293Z,4.33
2018-08-03T03:21:19.925Z,6.47
2018-08-03T03:23:48.690Z,4.03
2018-08-03T03:26:17.578Z,3.70
2018-08-03T03:28:46.473Z,3.80
2018-08-03T03:31:15.635Z,4.93
2018-08-03T03:33:44.943Z,5.07
2018-08-03T03:36:13.811Z,4.93
2018-08-03T03:38:43.310Z,3.20
2018-08-03T03:41:12.686Z,2.67
2018-08-03T03:43:41.598Z,5.97
2018-08-03T03:46:10.492Z,5.73
2018-08-03T03:48:39.374Z,5.23
2018-08-03T03:51:08.366Z,3.73
2018-08-03T03:53:37.242Z,3.23
2018-08-03T03:56:06.371Z,6.73
2018-08-03T03:58:35.275Z,3.37
2018-08-03T04:01:04.161Z,6.20
2018-08-03T04:03:33.139Z,5.90
2018-08-03T04:06:01.870Z,3.97
2018-08-03T04:08:30.642Z,3.83
2018-08-03T04:10:59.562Z,4.77
2018-08-03T04:13:28.419Z,6.40
2018-08-03T04:15:57.606Z,6.93
2018-08-03T04:18:26.527Z,7.07
2018-08-03T04:20:55.984Z,7.00
2018-08-03T04:23:25.130Z,6.73
2018-08-03T04:25:54.182Z,6.53
2018-08-03T04:28:23.100Z,5.10
2018-08-03T04:30:51.999Z,4.93
2018-08-03T04:33:20.874Z,6.00
2018-08-03T04:35:49.841Z,5.13
2018-08-03T04:38:18.910Z,6.13
2018-08-03T04:40:48.453Z,5.90
2018-08-03T04:43:17.442Z,6.07
2018-08-03T04:45:46.428Z,6.57
2018-08-03T04:48:15.450Z,5.97
2018-08-03T04:50:44.414Z,4.17
2018-08-03T04:53:13.574Z,4.37
2018-08-03T04:55:42.454Z,6.80
2018-08-03T04:58:11.318Z,6.33
2018-08-03T05:00:40.282Z,6.50
2018-08-03T05:03:09.178Z,4.63
2018-08-03T05:05:38.578Z,4.07
2018-08-03T05:08:07.551Z,3.53
2018-08-03T05:10:36.235Z,4.00
2018-08-03T05:13:05.006Z,7.33
2018-08-03T05:15:34.013Z,6.70
2018-08-03T05:18:02.826Z,6.90
2018-08-03T05:20:31.733Z,7.23
2018-08-03T05:23:00.790Z,7.23
2018-08-03T05:25:29.666Z,7.97
2018-08-03T05:27:58.587Z,6.77
2018-08-03T05:30:27.603Z,6.80
2018-08-03T05:32:56.414Z,5.77
2018-08-03T05:35:25.361Z,8.20
2018-08-03T05:37:54.203Z,6.20
2018-08-03T05:40:23.134Z,4.17
2018-08-03T05:42:52.053Z,8.73
2018-08-03T05:45:21.012Z,8.10
2018-08-03T05:47:49.836Z,9.00
2018-08-03T05:50:18.784Z,11.73
2018-08-03T05:52:47.698Z,10.03
2018-08-03T05:55:16.658Z,10.77
2018-08-03T05:57:45.558Z,8.60
2018-08-03T06:00:14.515Z,11.03
2018-08-03T06:02:43.429Z,10.77
2018-08-03T06:05:12.340Z,10.67
2018-08-03T06:07:41.218Z,10.03
2018-08-03T06:10:10.117Z,7.87
2018-08-03T06:12:38.993Z,10.67
2018-08-03T06:15:08.788Z,9.30
2018-08-03T06:17:37.860Z,10.27
2018-08-03T06:20:08.088Z,9.47
2018-08-03T06:22:37.038Z,9.47
2018-08-03T06:25:06.842Z,10.77
2018-08-03T06:27:35.825Z,9.97
2018-08-03T06:30:05.800Z,9.50
2018-08-03T06:32:35.239Z,7.60
2018-08-03T06:35:04.111Z,9.63
2018-08-03T06:37:32.759Z,8.30
2018-08-03T06:40:02.202Z,7.97
2018-08-03T06:42:31.070Z,7.80
2018-08-03T06:44:59.972Z,7.23
2018-08-03T06:47:28.970Z,9.43
2018-08-03T06:49:57.890Z,7.70
2018-08-03T06:52:26.759Z,9.40
2018-08-03T06:54:55.832Z,9.23
2018-08-03T06:57:25.294Z,9.30
2018-08-03T06:59:54.452Z,8.20
2018-08-03T07:02:23.882Z,8.37
2018-08-03T07:04:52.762Z,8.60
2018-08-03T07:07:21.710Z,8.93
2018-08-03T07:09:50.820Z,8.67
2018-08-03T07:12:19.738Z,6.87
2018-08-03T07:14:48.619Z,8.10
2018-08-03T07:17:17.487Z,8.60
2018-08-03T07:19:46.372Z,8.90
2018-08-03T07:22:15.267Z,8.30
2018-08-03T07:24:43.997Z,6.40
2018-08-03T07:27:12.802Z,8.20
2018-08-03T07:29:43.987Z,6.37
2018-08-03T07:32:12.863Z,6.53
2018-08-03T07:34:42.807Z,5.90
2018-08-03T07:37:12.051Z,5.90
2018-08-03T07:39:41.345Z,5.77
2018-08-03T07:42:10.254Z,5.30
2018-08-03T07:44:43.822Z,5.00
2018-08-03T07:47:12.662Z,5.10
2018-08-03T07:49:41.563Z,4.53
2018-08-03T07:52:11.502Z,4.10
2018-08-03T07:54:43.280Z,4.20
2018-08-03T07:57:12.288Z,3.80
2018-08-03T07:59:41.450Z,4.43
2018-08-03T08:02:10.410Z,4.87
2018-08-03T08:04:41.431Z,4.33
2018-08-03T08:07:10.330Z,4.30
2018-08-03T08:09:39.309Z,3.93
2018-08-03T08:12:08.016Z,4.70
2018-08-03T08:14:38.562Z,3.47
2018-08-03T08:17:07.514Z,3.87
2018-08-03T08:19:36.548Z,4.83
2018-08-03T08:22:05.507Z,3.90
2018-08-03T08:24:34.187Z,4.47
2018-08-03T08:27:02.934Z,3.20
2018-08-03T08:29:38.750Z,4.40
2018-08-03T08:32:07.731Z,4.37
2018-08-03T08:34:36.622Z,4.43
2018-08-03T08:37:05.349Z,5.90
2018-08-03T08:39:34.071Z,3.33
2018-08-03T08:42:03.003Z,4.20
2018-08-03T08:44:31.747Z,4.67
2018-08-03T08:47:00.949Z,5.03
2018-08-03T08:49:30.043Z,4.97
2018-08-03T08:51:59.651Z,4.30
2018-08-03T08:54:28.735Z,3.37
2018-08-03T08:56:58.469Z,4.50
2018-08-03T08:59:27.896Z,4.87
2018-08-03T09:01:57.468Z,3.40
2018-08-03T09:04:26.377Z,4.30
2018-08-03T09:06:55.798Z,3.00
2018-08-03T09:09:24.657Z,2.67
2018-08-03T09:11:53.384Z,5.23
2018-08-03T09:14:22.162Z,2.93
2018-08-03T09:16:51.106Z,2.60
2018-08-03T09:19:20.558Z,2.60
2018-08-03T09:21:49.443Z,4.00
2018-08-03T09:24:20.274Z,2.87
2018-08-03T09:26:49.558Z,3.83
2018-08-03T09:29:18.610Z,3.80
2018-08-03T09:31:47.537Z,3.97
2018-08-03T09:34:16.412Z,4.10
2018-08-03T09:36:46.074Z,3.40
2018-08-03T09:39:15.015Z,3.63
2018-08-03T09:41:44.007Z,3.10
2018-08-03T09:44:12.802Z,2.90
2018-08-03T09:46:41.668Z,2.60
2018-08-03T09:49:10.933Z,3.17
2018-08-03T09:51:39.896Z,2.57
2018-08-03T09:54:08.815Z,3.70
2018-08-03T09:56:37.735Z,3.23
2018-08-03T09:59:07.212Z,2.63
2018-08-03T10:01:36.359Z,2.97
2018-08-03T10:04:05.347Z,2.63
2018-08-03T10:06:34.122Z,2.70
2018-08-03T10:09:02.961Z,2.43
2018-08-03T10:11:32.070Z,2.83
2018-08-03T10:14:05.319Z,2.93
2018-08-03T10:16:34.157Z,2.30
2018-08-03T10:19:02.930Z,2.87
2018-08-03T10:21:31.919Z,2.87
2018-08-03T10:24:00.797Z,2.43
2018-08-03T10:26:29.665Z,2.37
2018-08-03T10:28:58.726Z,2.43
2018-08-03T10:31:28.049Z,2.13
2018-08-03T10:33:56.908Z,2.77
2018-08-03T10:36:25.872Z,3.00
2018-08-03T10:38:55.162Z,3.30
2018-08-03T10:41:24.031Z,2.97
2018-08-03T10:43:53.002Z,2.30
2018-08-03T10:46:22.484Z,2.30
2018-08-03T10:48:52.566Z,2.20
2018-08-03T10:51:21.436Z,2.33
2018-08-03T10:53:50.309Z,2.47
2018-08-03T10:56:19.494Z,2.70
2018-08-03T10:58:48.980Z,3.33
2018-08-03T11:01:17.914Z,3.37
2018-08-03T11:03:46.802Z,2.43
2018-08-03T11:06:16.039Z,2.33
2018-08-03T11:08:45.014Z,3.03
2018-08-03T11:11:13.982Z,3.07
2018-08-03T11:13:42.935Z,2.47
2018-08-03T11:16:11.818Z,2.50
2018-08-03T11:18:40.928Z,2.40
2018-08-03T11:21:10.346Z,2.10
2018-08-03T11:23:39.260Z,2.97
2018-08-03T11:26:08.159Z,2.60
2018-08-03T11:28:37.156Z,2.70
2018-08-03T11:31:06.155Z,2.80
2018-08-03T11:33:35.078Z,2.47
2018-08-03T11:36:04.047Z,2.20
2018-08-03T11:38:32.982Z,2.70
2018-08-03T11:41:01.867Z,3.07
2018-08-03T11:43:31.084Z,2.97
2018-08-03T11:45:59.775Z,2.70
2018-08-03T11:48:28.667Z,2.60
2018-08-03T11:50:57.570Z,2.63
2018-08-03T11:53:26.455Z,2.77
2018-08-03T11:55:55.411Z,2.50
2018-08-03T11:58:24.407Z,2.37
2018-08-03T12:00:53.371Z,2.17
2018-08-03T12:03:22.263Z,1.70
2018-08-03T12:05:51.142Z,2.57
2018-08-03T12:08:20.093Z,2.20
2018-08-03T12:10:49.193Z,2.60
2018-08-03T12:13:18.435Z,2.53
2018-08-03T12:15:47.398Z,2.00
2018-08-03T12:18:16.287Z,2.67
2018-08-03T12:20:46.439Z,2.20
2018-08-03T12:23:15.426Z,2.73
2018-08-03T12:25:44.568Z,2.40
2018-08-03T12:28:13.749Z,2.53
2018-08-03T12:30:42.715Z,1.80
2018-08-03T12:33:12.039Z,2.20
2018-08-03T12:35:41.562Z,2.27
2018-08-03T12:38:10.564Z,2.27
2018-08-03T12:40:39.670Z,2.90
2018-08-03T12:43:08.877Z,2.63
2018-08-03T12:45:38.134Z,2.27
2018-08-03T12:48:07.483Z,2.13
2018-08-03T12:50:36.443Z,2.30
2018-08-03T12:53:05.411Z,2.50
2018-08-03T12:55:35.589Z,2.20
2018-08-03T12:58:04.654Z,2.47
2018-08-03T13:00:34.180Z,2.33
2018-08-03T13:03:03.142Z,2.60
2018-08-03T13:05:32.412Z,2.17
2018-08-03T13:08:01.697Z,2.10
2018-08-03T13:10:31.137Z,2.20
2018-08-03T13:13:00.337Z,2.27
2018-08-03T13:15:29.461Z,2.70
2018-08-03T13:17:58.707Z,2.30
2018-08-03T13:20:28.947Z,2.50
2018-08-03T13:23:03.166Z,2.60
2018-08-03T13:25:32.949Z,1.90
2018-08-03T13:28:04.799Z,2.60
2018-08-03T13:30:33.826Z,2.13
2018-08-03T13:33:03.034Z,2.97
2018-08-03T13:35:34.091Z,2.43
2018-08-03T13:38:03.315Z,2.57
2018-08-03T13:40:32.510Z,2.47
2018-08-03T13:43:05.119Z,2.83
2018-08-03T13:45:52.474Z,2.33
2018-08-03T13:48:21.852Z,2.37
2018-08-03T13:50:50.542Z,2.13
2018-08-03T13:53:19.448Z,2.53
2018-08-03T13:55:48.291Z,2.55
2018-08-03T13:58:17.166Z,2.40
2018-08-03T14:00:46.346Z,2.60
2018-08-03T14:03:15.202Z,2.80
2018-08-03T14:05:44.139Z,2.37
2018-08-03T14:08:13.061Z,2.40
2018-08-03T14:10:42.823Z,2.20
2018-08-03T14:13:11.754Z,2.50
2018-08-03T14:15:40.749Z,3.23
2018-08-03T14:18:09.582Z,3.00
2018-08-03T14:20:38.416Z,2.67
2018-08-03T14:23:07.259Z,2.63
2018-08-03T14:25:36.437Z,2.47
2018-08-03T14:28:05.430Z,2.40
2018-08-03T14:30:34.633Z,3.43
2018-08-03T14:33:03.527Z,2.30
2018-08-03T14:35:35.819Z,2.70
2018-08-03T14:38:04.721Z,2.53
2018-08-03T14:40:33.452Z,2.30
2018-08-03T14:43:02.285Z,2.30
2018-08-03T14:45:31.059Z,2.30
2018-08-03T14:47:59.978Z,2.23
2018-08-03T14:50:29.012Z,2.13
2018-08-03T14:52:59.440Z,2.43
2018-08-03T14:55:28.092Z,2.00
2018-08-03T14:57:56.906Z,3.20
2018-08-03T15:00:26.574Z,3.77
2018-08-03T15:02:55.814Z,1.80
2018-08-03T15:05:25.575Z,1.50
2018-08-03T15:07:54.722Z,2.17
2018-08-03T15:10:23.817Z,1.93
2018-08-03T15:12:52.721Z,1.67
2018-08-03T15:15:21.802Z,1.30
2018-08-03T15:17:51.805Z,1.90
2018-08-03T15:20:20.674Z,2.17
2018-08-03T15:22:49.578Z,2.03
2018-08-03T15:25:18.482Z,1.63
2018-08-03T15:27:47.522Z,2.87
2018-08-03T15:30:16.653Z,1.40
2018-08-03T15:32:45.622Z,2.10
2018-08-03T15:35:14.642Z,1.53
2018-08-03T15:37:43.495Z,1.40
2018-08-03T15:40:19.174Z,1.83
2018-08-03T15:42:48.009Z,1.40
2018-08-03T15:45:16.847Z,1.40
2018-08-03T15:47:45.667Z,1.10
2018-08-03T15:50:15.384Z,1.30
2018-08-03T15:52:44.042Z,1.17
2018-08-03T15:55:12.770Z,1.17
2018-08-03T15:57:41.656Z,1.10
2018-08-03T16:00:10.510Z,1.00
2018-08-03T16:02:39.446Z,0.90
2018-08-03T16:05:09.047Z,0.80
2018-08-03T16:07:37.977Z,1.33
2018-08-03T16:10:06.965Z,0.90
2018-08-03T16:12:35.872Z,1.47
2018-08-03T16:15:05.295Z,1.03
2018-08-03T16:17:34.329Z,1.00
2018-08-03T16:20:02.949Z,1.03
2018-08-03T16:22:32.268Z,0.90
2018-08-03T16:25:00.915Z,1.20
2018-08-03T16:27:29.675Z,1.23
2018-08-03T16:29:58.510Z,2.40
2018-08-03T16:32:27.370Z,5.73
2018-08-03T16:34:56.627Z,1.67
2018-08-03T16:37:25.483Z,0.77
2018-08-03T16:39:54.352Z,1.13
2018-08-03T16:42:23.223Z,1.17
2018-08-03T16:44:52.119Z,2.40
2018-08-03T16:47:21.266Z,0.90
2018-08-03T16:49:49.925Z,1.00
2018-08-03T16:52:18.630Z,0.90
2018-08-03T16:54:47.245Z,0.90
2018-08-03T16:57:16.053Z,1.10
2018-08-03T16:59:44.897Z,1.00
2018-08-03T17:02:13.746Z,0.80
2018-08-03T17:04:42.587Z,0.90
2018-08-03T17:07:11.419Z,1.00
2018-08-03T17:09:40.278Z,3.90
2018-08-03T17:12:09.134Z,1.37
2018-08-03T17:14:37.975Z,0.77
2018-08-03T17:17:06.946Z,1.20
2018-08-03T17:19:35.802Z,1.07
2018-08-03T17:22:04.700Z,0.80
2018-08-03T17:24:33.985Z,0.80
2018-08-03T17:27:02.628Z,1.20
2018-08-03T17:29:31.414Z,0.90
2018-08-03T17:32:00.629Z,0.80
2018-08-03T17:34:29.402Z,0.80
2018-08-03T17:36:58.289Z,0.93
2018-08-03T17:39:27.130Z,1.00
2018-08-03T17:41:56.019Z,0.80
2018-08-03T17:44:24.634Z,1.03
2018-08-03T17:46:53.389Z,0.70
2018-08-03T17:49:22.370Z,0.90
2018-08-03T17:51:51.092Z,0.70
2018-08-03T17:54:19.927Z,0.87
2018-08-03T17:56:48.811Z,0.80
2018-08-03T17:59:17.711Z,0.80
2018-08-03T18:01:46.831Z,1.10
2018-08-03T18:04:15.703Z,0.90
2018-08-03T18:06:44.561Z,1.10
2018-08-03T18:09:13.466Z,1.10
2018-08-03T18:11:42.362Z,1.10
2018-08-03T18:14:11.244Z,0.90
2018-08-03T18:16:40.079Z,0.87
2018-08-03T18:19:08.801Z,1.00
2018-08-03T18:21:37.582Z,1.03
2018-08-03T18:24:06.450Z,1.17
2018-08-03T18:26:35.330Z,1.00
2018-08-03T18:29:04.264Z,0.90
2018-08-03T18:31:33.082Z,1.33
2018-08-03T18:34:01.740Z,1.17
2018-08-03T18:36:30.457Z,1.20
2018-08-03T18:38:59.514Z,1.00
2018-08-03T18:41:28.410Z,1.20
2018-08-03T18:43:57.266Z,1.20
2018-08-03T18:46:26.174Z,1.00
2018-08-03T18:48:55.033Z,1.10
2018-08-03T18:51:24.479Z,1.13
2018-08-03T18:53:53.330Z,1.63
2018-08-03T18:56:22.228Z,1.40
2018-08-03T18:58:51.123Z,1.30
2018-08-03T19:01:19.952Z,1.57
2018-08-03T19:03:48.809Z,1.47
2018-08-03T19:06:17.654Z,1.40
2018-08-03T19:08:46.505Z,1.37
2018-08-03T19:11:15.472Z,1.90
2018-08-03T19:13:44.366Z,1.73
2018-08-03T19:16:13.586Z,2.20
2018-08-03T19:18:42.502Z,1.63
2018-08-03T19:21:11.450Z,1.63
2018-08-03T19:23:40.368Z,1.90
2018-08-03T19:26:09.201Z,1.70
2018-08-03T19:28:38.290Z,1.40
2018-08-03T19:31:07.180Z,1.67
2018-08-03T19:33:36.018Z,1.73
2018-08-03T19:36:04.922Z,2.00
2018-08-03T19:38:33.774Z,1.53
2018-08-03T19:41:02.894Z,1.60
2018-08-03T19:43:31.746Z,1.37
2018-08-03T19:46:00.607Z,1.70
2018-08-03T19:48:29.448Z,1.60
2018-08-03T19:50:58.397Z,2.53
2018-08-03T19:53:27.286Z,1.80
2018-08-03T19:55:56.106Z,2.00
2018-08-03T19:58:24.981Z,1.70
2018-08-03T20:00:53.853Z,1.33
2018-08-03T20:03:22.685Z,1.10
2018-08-03T20:05:51.580Z,1.33
2018-08-03T20:08:20.522Z,1.20
2018-08-03T20:10:49.415Z,1.43
2018-08-03T20:13:18.311Z,1.40
2018-08-03T20:15:47.284Z,1.30
2018-08-03T20:18:16.858Z,1.57
2018-08-03T20:20:45.726Z,1.60
2018-08-03T20:23:14.605Z,1.70
2018-08-03T20:25:46.933Z,1.37
2018-08-03T20:28:16.779Z,1.47
2018-08-03T20:30:46.086Z,1.60
2018-08-03T20:33:14.966Z,1.40
2018-08-03T20:35:43.857Z,1.70
2018-08-03T20:38:12.721Z,1.20
2018-08-03T20:40:41.578Z,1.60
2018-08-03T20:43:10.806Z,1.60
2018-08-03T20:45:39.674Z,1.77
2018-08-03T20:48:08.600Z,2.00
2018-08-03T20:50:37.261Z,1.87
2018-08-03T20:53:06.182Z,1.67
2018-08-03T20:55:35.092Z,1.60
2018-08-03T20:58:04.121Z,1.77
2018-08-03T21:00:32.919Z,1.80
2018-08-03T21:03:02.006Z,1.77
2018-08-03T21:05:30.830Z,1.70
2018-08-03T21:07:59.666Z,1.83
2018-08-03T21:10:28.542Z,1.60
2018-08-03T21:12:57.393Z,2.10
2018-08-03T21:15:26.270Z,2.83
2018-08-03T21:17:54.961Z,2.00
2018-08-03T21:20:23.938Z,2.10
2018-08-03T21:22:52.546Z,1.70
2018-08-03T21:25:21.278Z,2.37
2018-08-03T21:27:50.141Z,1.60
2018-08-03T21:30:18.992Z,2.03
2018-08-03T21:32:48.047Z,1.60
2018-08-03T21:35:16.901Z,2.00
2018-08-03T21:37:45.749Z,1.80
2018-08-03T21:40:14.664Z,1.60
2018-08-03T21:42:43.523Z,1.50
2018-08-03T21:45:12.552Z,1.77
2018-08-03T21:47:41.407Z,2.00
2018-08-03T21:50:10.308Z,2.27
2018-08-03T21:52:39.128Z,1.60
2018-08-03T21:55:07.974Z,1.80
2018-08-03T21:57:37.128Z,1.47
2018-08-03T22:00:09.028Z,1.70
2018-08-03T22:02:37.903Z,2.30
2018-08-03T22:05:06.761Z,2.13
2018-08-03T22:07:35.641Z,1.50
2018-08-03T22:10:04.938Z,1.97
2018-08-03T22:12:33.811Z,1.50
2018-08-03T22:15:02.753Z,1.70
2018-08-03T22:17:31.634Z,1.40
2018-08-03T22:20:00.505Z,1.70
2018-08-03T22:22:29.329Z,1.77
2018-08-03T22:24:58.397Z,1.47
2018-08-03T22:27:27.887Z,1.50
2018-08-03T22:29:56.766Z,1.63
2018-08-03T22:32:25.685Z,1.60
2018-08-03T22:34:54.273Z,1.20
2018-08-03T22:37:23.001Z,1.50
2018-08-03T22:39:51.904Z,1.47
2018-08-03T22:42:20.783Z,1.47
2018-08-03T22:44:49.683Z,1.63
2018-08-03T22:47:18.701Z,1.70
2018-08-03T22:49:47.631Z,1.40
2018-08-03T22:52:17.130Z,1.40
2018-08-03T22:54:45.953Z,1.67
2018-08-03T22:57:14.588Z,1.30
2018-08-03T22:59:43.392Z,1.70
2018-08-03T23:02:12.274Z,1.30
2018-08-03T23:04:41.213Z,1.33
2018-08-03T23:07:10.055Z,1.57
2018-08-03T23:09:38.943Z,1.63
2018-08-03T23:12:08.135Z,1.57
2018-08-03T23:14:36.980Z,1.83
2018-08-03T23:36:00.711Z,1.70
2018-08-03T23:38:29.614Z,1.80
2018-08-03T23:40:58.671Z,2.03
2018-08-03T23:43:27.342Z,2.07
2018-08-03T23:45:56.198Z,1.80
2018-08-03T23:48:25.090Z,2.17
2018-08-03T23:50:53.798Z,2.00
2018-08-03T23:53:22.787Z,1.70
2018-08-03T23:55:51.614Z,1.67
2018-08-03T23:58:20.446Z,1.70
